sensor_id;sensor_type;location;lat;lon;timestamp;temperature;humidity
18041;DHT22;9145;48.588;9.250;2023-08-06T00:01:33;16.80;99.90
18041;DHT22;9145;48.588;9.250;2023-08-06T00:04:00;16.80;99.90
18041;DHT22;9145;48.588;9.250;2023-08-06T00:06:27;16.70;99.90
18041;DHT22;9145;48.588;9.250;2023-08-06T00:08:54;16.70;99.90
18041;DHT22;9145;48.588;9.250;2023-08-06T00:11:23;16.70;99.90
18041;DHT22;9145;48.588;9.250;2023-08-06T00:13:49;16.70;99.90
18041;DHT22;9145;48.588;9.250;2023-08-06T00:16:16;16.70;99.90
18041;DHT22;9145;48.588;9.250;2023-08-06T00:18:43;16.70;99.90
18041;DHT22;9145;48.588;9.250;2023-08-06T00:21:10;16.70;99.90
18041;DHT22;9145;48.588;9.250;2023-08-06T00:23:37;16.50;99.90
18041;DHT22;9145;48.588;9.250;2023-08-06T00:26:04;16.50;99.90
18041;DHT22;9145;48.588;9.250;2023-08-06T00:28:32;16.50;99.90
18041;DHT22;9145;48.588;9.250;2023-08-06T00:30:59;16.40;99.90
18041;DHT22;9145;48.588;9.250;2023-08-06T00:33:26;16.30;99.90
18041;DHT22;9145;48.588;9.250;2023-08-06T00:35:53;16.30;99.90
18041;DHT22;9145;48.588;9.250;2023-08-06T00:38:19;16.10;99.90
18041;DHT22;9145;48.588;9.250;2023-08-06T00:40:50;15.90;99.90
18041;DHT22;9145;48.588;9.250;2023-08-06T00:43:16;15.70;99.90
18041;DHT22;9145;48.588;9.250;2023-08-06T00:45:44;15.60;99.90
18041;DHT22;9145;48.588;9.250;2023-08-06T00:48:11;15.60;99.90
18041;DHT22;9145;48.588;9.250;2023-08-06T00:50:38;15.60;99.90
18041;DHT22;9145;48.588;9.250;2023-08-06T00:53:05;15.70;99.90
18041;DHT22;9145;48.588;9.250;2023-08-06T00:55:33;15.80;99.90
18041;DHT22;9145;48.588;9.250;2023-08-06T00:57:59;15.80;99.90
18041;DHT22;9145;48.588;9.250;2023-08-06T01:00:27;15.80;99.90
18041;DHT22;9145;48.588;9.250;2023-08-06T01:02:55;15.90;99.90
18041;DHT22;9145;48.588;9.250;2023-08-06T01:05:22;15.90;99.90
18041;DHT22;9145;48.588;9.250;2023-08-06T01:08:00;15.90;99.90
18041;DHT22;9145;48.588;9.250;2023-08-06T01:10:40;16.00;99.90
18041;DHT22;9145;48.588;9.250;2023-08-06T01:13:19;16.00;99.90
18041;DHT22;9145;48.588;9.250;2023-08-06T01:15:55;16.00;99.90
18041;DHT22;9145;48.588;9.250;2023-08-06T01:18:25;16.00;99.90
18041;DHT22;9145;48.588;9.250;2023-08-06T01:20:53;16.00;99.90
18041;DHT22;9145;48.588;9.250;2023-08-06T01:23:20;16.00;99.90
18041;DHT22;9145;48.588;9.250;2023-08-06T01:25:51;15.90;99.90
18041;DHT22;9145;48.588;9.250;2023-08-06T01:28:32;15.80;99.90
18041;DHT22;9145;48.588;9.250;2023-08-06T01:31:02;15.80;99.90
18041;DHT22;9145;48.588;9.250;2023-08-06T01:33:31;15.70;99.90
18041;DHT22;9145;48.588;9.250;2023-08-06T01:36:01;15.60;99.90
18041;DHT22;9145;48.588;9.250;2023-08-06T01:38:28;15.50;99.90
18041;DHT22;9145;48.588;9.250;2023-08-06T01:40:55;15.50;99.90
18041;DHT22;9145;48.588;9.250;2023-08-06T01:43:21;15.40;99.90
18041;DHT22;9145;48.588;9.250;2023-08-06T01:45:48;15.40;99.90
18041;DHT22;9145;48.588;9.250;2023-08-06T01:48:15;15.30;99.90
18041;DHT22;9145;48.588;9.250;2023-08-06T01:50:42;15.30;99.90
18041;DHT22;9145;48.588;9.250;2023-08-06T01:53:10;15.30;99.90
18041;DHT22;9145;48.588;9.250;2023-08-06T01:55:37;15.30;99.90
18041;DHT22;9145;48.588;9.250;2023-08-06T01:58:04;15.30;99.90
18041;DHT22;9145;48.588;9.250;2023-08-06T02:00:30;15.20;99.90
18041;DHT22;9145;48.588;9.250;2023-08-06T02:02:57;15.20;99.90
18041;DHT22;9145;48.588;9.250;2023-08-06T02:05:25;15.20;99.90
18041;DHT22;9145;48.588;9.250;2023-08-06T02:07:52;15.10;99.90
18041;DHT22;9145;48.588;9.250;2023-08-06T02:10:20;15.00;99.90
18041;DHT22;9145;48.588;9.250;2023-08-06T02:12:47;15.00;99.90
18041;DHT22;9145;48.588;9.250;2023-08-06T02:15:13;15.00;99.90
18041;DHT22;9145;48.588;9.250;2023-08-06T02:17:40;14.80;99.90
18041;DHT22;9145;48.588;9.250;2023-08-06T02:20:08;14.80;99.90
18041;DHT22;9145;48.588;9.250;2023-08-06T02:22:35;14.90;99.90
18041;DHT22;9145;48.588;9.250;2023-08-06T02:25:01;14.80;99.90
18041;DHT22;9145;48.588;9.250;2023-08-06T02:27:29;14.70;99.90
18041;DHT22;9145;48.588;9.250;2023-08-06T02:29:56;14.70;99.90
18041;DHT22;9145;48.588;9.250;2023-08-06T02:32:23;14.70;99.90
18041;DHT22;9145;48.588;9.250;2023-08-06T02:34:50;14.70;99.90
18041;DHT22;9145;48.588;9.250;2023-08-06T02:37:17;14.70;99.90
18041;DHT22;9145;48.588;9.250;2023-08-06T02:39:43;14.60;99.90
18041;DHT22;9145;48.588;9.250;2023-08-06T02:42:11;14.70;99.90
18041;DHT22;9145;48.588;9.250;2023-08-06T02:44:39;14.60;99.90
18041;DHT22;9145;48.588;9.250;2023-08-06T02:47:06;14.60;99.90
18041;DHT22;9145;48.588;9.250;2023-08-06T02:49:32;14.70;99.90
18041;DHT22;9145;48.588;9.250;2023-08-06T02:51:59;14.70;99.90
18041;DHT22;9145;48.588;9.250;2023-08-06T02:54:26;14.80;99.90
18041;DHT22;9145;48.588;9.250;2023-08-06T02:56:53;14.80;99.90
18041;DHT22;9145;48.588;9.250;2023-08-06T02:59:20;14.80;99.90
18041;DHT22;9145;48.588;9.250;2023-08-06T03:01:48;14.80;99.90
18041;DHT22;9145;48.588;9.250;2023-08-06T03:04:14;14.80;99.90
18041;DHT22;9145;48.588;9.250;2023-08-06T03:06:43;14.80;99.90
18041;DHT22;9145;48.588;9.250;2023-08-06T03:09:10;14.80;99.90
18041;DHT22;9145;48.588;9.250;2023-08-06T03:11:37;14.70;99.90
18041;DHT22;9145;48.588;9.250;2023-08-06T03:14:03;14.60;99.90
18041;DHT22;9145;48.588;9.250;2023-08-06T03:16:30;14.70;99.90
18041;DHT22;9145;48.588;9.250;2023-08-06T03:18:58;14.60;99.90
18041;DHT22;9145;48.588;9.250;2023-08-06T03:21:25;14.60;99.90
18041;DHT22;9145;48.588;9.250;2023-08-06T03:23:52;14.60;99.90
18041;DHT22;9145;48.588;9.250;2023-08-06T03:26:19;14.70;99.90
18041;DHT22;9145;48.588;9.250;2023-08-06T03:28:45;14.70;99.90
18041;DHT22;9145;48.588;9.250;2023-08-06T03:31:12;14.70;99.90
18041;DHT22;9145;48.588;9.250;2023-08-06T03:33:39;14.70;99.90
18041;DHT22;9145;48.588;9.250;2023-08-06T03:36:07;14.80;99.90
18041;DHT22;9145;48.588;9.250;2023-08-06T03:38:34;14.80;99.90
18041;DHT22;9145;48.588;9.250;2023-08-06T03:41:00;14.80;99.90
18041;DHT22;9145;48.588;9.250;2023-08-06T03:43:27;14.80;99.90
18041;DHT22;9145;48.588;9.250;2023-08-06T03:45:54;14.80;99.90
18041;DHT22;9145;48.588;9.250;2023-08-06T03:48:21;14.80;99.90
18041;DHT22;9145;48.588;9.250;2023-08-06T03:50:48;14.80;99.90
18041;DHT22;9145;48.588;9.250;2023-08-06T03:53:16;14.70;99.90
18041;DHT22;9145;48.588;9.250;2023-08-06T03:55:43;14.70;99.90
18041;DHT22;9145;48.588;9.250;2023-08-06T03:58:09;14.70;99.90
18041;DHT22;9145;48.588;9.250;2023-08-06T04:00:36;14.60;99.90
18041;DHT22;9145;48.588;9.250;2023-08-06T04:03:03;14.60;99.90
18041;DHT22;9145;48.588;9.250;2023-08-06T04:05:31;14.70;99.90
18041;DHT22;9145;48.588;9.250;2023-08-06T04:07:58;14.70;99.90
18041;DHT22;9145;48.588;9.250;2023-08-06T04:10:27;14.70;99.90
18041;DHT22;9145;48.588;9.250;2023-08-06T04:12:54;14.60;99.90
18041;DHT22;9145;48.588;9.250;2023-08-06T04:15:20;14.60;99.90
18041;DHT22;9145;48.588;9.250;2023-08-06T04:17:47;14.60;99.90
18041;DHT22;9145;48.588;9.250;2023-08-06T04:20:14;14.60;99.90
18041;DHT22;9145;48.588;9.250;2023-08-06T04:22:41;14.60;99.90
18041;DHT22;9145;48.588;9.250;2023-08-06T04:25:08;14.60;99.90
18041;DHT22;9145;48.588;9.250;2023-08-06T04:27:36;14.60;99.90
18041;DHT22;9145;48.588;9.250;2023-08-06T04:30:07;14.50;99.90
18041;DHT22;9145;48.588;9.250;2023-08-06T04:32:34;14.50;99.90
18041;DHT22;9145;48.588;9.250;2023-08-06T04:35:01;14.50;99.90
18041;DHT22;9145;48.588;9.250;2023-08-06T04:37:28;14.50;99.90
18041;DHT22;9145;48.588;9.250;2023-08-06T04:39:55;14.40;99.90
18041;DHT22;9145;48.588;9.250;2023-08-06T04:42:21;14.30;99.90
18041;DHT22;9145;48.588;9.250;2023-08-06T04:44:50;14.40;99.90
18041;DHT22;9145;48.588;9.250;2023-08-06T04:47:17;14.30;99.90
18041;DHT22;9145;48.588;9.250;2023-08-06T04:49:43;14.30;99.90
18041;DHT22;9145;48.588;9.250;2023-08-06T04:52:10;14.30;99.90
18041;DHT22;9145;48.588;9.250;2023-08-06T04:54:37;14.20;99.90
18041;DHT22;9145;48.588;9.250;2023-08-06T04:57:05;14.30;99.90
18041;DHT22;9145;48.588;9.250;2023-08-06T04:59:31;14.20;99.90
18041;DHT22;9145;48.588;9.250;2023-08-06T05:01:59;14.20;99.90
18041;DHT22;9145;48.588;9.250;2023-08-06T05:04:27;14.20;99.90
18041;DHT22;9145;48.588;9.250;2023-08-06T05:06:54;14.20;99.90
18041;DHT22;9145;48.588;9.250;2023-08-06T05:09:20;14.20;99.90
18041;DHT22;9145;48.588;9.250;2023-08-06T05:11:49;14.20;99.90
18041;DHT22;9145;48.588;9.250;2023-08-06T05:14:15;14.10;99.90
18041;DHT22;9145;48.588;9.250;2023-08-06T05:16:42;14.10;99.90
18041;DHT22;9145;48.588;9.250;2023-08-06T05:19:10;14.20;99.90
18041;DHT22;9145;48.588;9.250;2023-08-06T05:21:37;14.20;99.90
18041;DHT22;9145;48.588;9.250;2023-08-06T05:24:04;14.20;99.90
18041;DHT22;9145;48.588;9.250;2023-08-06T05:26:31;14.30;99.90
18041;DHT22;9145;48.588;9.250;2023-08-06T05:28:57;14.30;99.90
18041;DHT22;9145;48.588;9.250;2023-08-06T05:31:24;14.40;99.90
18041;DHT22;9145;48.588;9.250;2023-08-06T05:33:51;14.40;99.90
18041;DHT22;9145;48.588;9.250;2023-08-06T05:36:19;14.40;99.90
18041;DHT22;9145;48.588;9.250;2023-08-06T05:38:46;14.40;99.90
18041;DHT22;9145;48.588;9.250;2023-08-06T05:41:13;14.50;99.90
18041;DHT22;9145;48.588;9.250;2023-08-06T05:43:40;14.50;99.90
18041;DHT22;9145;48.588;9.250;2023-08-06T05:46:07;14.70;99.90
18041;DHT22;9145;48.588;9.250;2023-08-06T05:48:33;14.80;99.90
18041;DHT22;9145;48.588;9.250;2023-08-06T05:51:01;14.80;99.90
18041;DHT22;9145;48.588;9.250;2023-08-06T05:53:29;14.90;99.90
18041;DHT22;9145;48.588;9.250;2023-08-06T05:55:56;14.90;99.90
18041;DHT22;9145;48.588;9.250;2023-08-06T05:58:22;14.90;99.90
18041;DHT22;9145;48.588;9.250;2023-08-06T06:00:51;15.00;99.90
18041;DHT22;9145;48.588;9.250;2023-08-06T06:03:18;15.00;99.90
18041;DHT22;9145;48.588;9.250;2023-08-06T06:05:45;15.00;99.90
18041;DHT22;9145;48.588;9.250;2023-08-06T06:08:12;15.00;99.90
18041;DHT22;9145;48.588;9.250;2023-08-06T06:10:40;14.90;99.90
18041;DHT22;9145;48.588;9.250;2023-08-06T06:13:06;14.90;99.90
18041;DHT22;9145;48.588;9.250;2023-08-06T06:15:33;14.90;99.90
18041;DHT22;9145;48.588;9.250;2023-08-06T06:18:00;14.80;99.90
18041;DHT22;9145;48.588;9.250;2023-08-06T06:20:27;14.80;99.90
18041;DHT22;9145;48.588;9.250;2023-08-06T06:22:54;14.80;99.90
18041;DHT22;9145;48.588;9.250;2023-08-06T06:25:20;14.90;99.90
18041;DHT22;9145;48.588;9.250;2023-08-06T06:27:48;14.90;99.90
18041;DHT22;9145;48.588;9.250;2023-08-06T06:30:15;14.90;99.90
18041;DHT22;9145;48.588;9.250;2023-08-06T06:32:42;14.90;99.90
18041;DHT22;9145;48.588;9.250;2023-08-06T06:35:09;14.90;99.90
18041;DHT22;9145;48.588;9.250;2023-08-06T06:37:36;15.00;99.90
18041;DHT22;9145;48.588;9.250;2023-08-06T06:40:04;15.00;99.90
18041;DHT22;9145;48.588;9.250;2023-08-06T06:42:30;15.00;99.90
18041;DHT22;9145;48.588;9.250;2023-08-06T06:44:59;15.00;99.90
18041;DHT22;9145;48.588;9.250;2023-08-06T06:47:25;14.90;99.90
18041;DHT22;9145;48.588;9.250;2023-08-06T06:49:52;14.90;99.90
18041;DHT22;9145;48.588;9.250;2023-08-06T06:52:19;14.90;99.90
18041;DHT22;9145;48.588;9.250;2023-08-06T06:54:46;14.90;99.90
18041;DHT22;9145;48.588;9.250;2023-08-06T06:57:13;14.80;99.90
18041;DHT22;9145;48.588;9.250;2023-08-06T06:59:40;14.90;99.90
18041;DHT22;9145;48.588;9.250;2023-08-06T07:02:08;14.90;99.90
18041;DHT22;9145;48.588;9.250;2023-08-06T07:04:35;14.80;99.90
18041;DHT22;9145;48.588;9.250;2023-08-06T07:07:02;14.80;99.90
18041;DHT22;9145;48.588;9.250;2023-08-06T07:09:28;14.80;99.90
18041;DHT22;9145;48.588;9.250;2023-08-06T07:11:55;14.90;99.90
18041;DHT22;9145;48.588;9.250;2023-08-06T07:14:24;14.90;99.90
18041;DHT22;9145;48.588;9.250;2023-08-06T07:16:51;14.90;99.90
18041;DHT22;9145;48.588;9.250;2023-08-06T07:19:19;14.80;99.90
18041;DHT22;9145;48.588;9.250;2023-08-06T07:21:46;14.80;99.90
18041;DHT22;9145;48.588;9.250;2023-08-06T07:24:12;14.80;99.90
18041;DHT22;9145;48.588;9.250;2023-08-06T07:26:39;14.80;99.90
18041;DHT22;9145;48.588;9.250;2023-08-06T07:29:06;14.80;99.90
18041;DHT22;9145;48.588;9.250;2023-08-06T07:31:33;14.90;99.90
18041;DHT22;9145;48.588;9.250;2023-08-06T07:33:59;14.90;99.90
18041;DHT22;9145;48.588;9.250;2023-08-06T07:36:28;15.00;99.90
18041;DHT22;9145;48.588;9.250;2023-08-06T07:38:55;14.90;99.90
18041;DHT22;9145;48.588;9.250;2023-08-06T07:41:22;14.80;99.90
18041;DHT22;9145;48.588;9.250;2023-08-06T07:43:49;14.80;99.90
18041;DHT22;9145;48.588;9.250;2023-08-06T07:46:16;14.80;99.90
18041;DHT22;9145;48.588;9.250;2023-08-06T07:48:42;14.80;99.90
18041;DHT22;9145;48.588;9.250;2023-08-06T07:51:09;14.90;99.90
18041;DHT22;9145;48.588;9.250;2023-08-06T07:53:38;15.00;99.90
18041;DHT22;9145;48.588;9.250;2023-08-06T07:56:05;14.90;99.90
18041;DHT22;9145;48.588;9.250;2023-08-06T07:58:31;14.90;99.90
18041;DHT22;9145;48.588;9.250;2023-08-06T08:00:58;15.00;99.90
18041;DHT22;9145;48.588;9.250;2023-08-06T08:03:25;14.90;99.90
18041;DHT22;9145;48.588;9.250;2023-08-06T08:05:54;14.90;99.90
18041;DHT22;9145;48.588;9.250;2023-08-06T08:08:22;14.90;99.90
18041;DHT22;9145;48.588;9.250;2023-08-06T08:10:51;14.90;99.90
18041;DHT22;9145;48.588;9.250;2023-08-06T08:13:17;14.90;99.90
18041;DHT22;9145;48.588;9.250;2023-08-06T08:15:44;15.00;99.90
18041;DHT22;9145;48.588;9.250;2023-08-06T08:18:11;15.00;99.90
18041;DHT22;9145;48.588;9.250;2023-08-06T08:20:38;15.10;99.90
18041;DHT22;9145;48.588;9.250;2023-08-06T08:23:05;15.20;99.90
18041;DHT22;9145;48.588;9.250;2023-08-06T08:25:32;15.30;99.90
18041;DHT22;9145;48.588;9.250;2023-08-06T08:28:01;15.40;99.90
18041;DHT22;9145;48.588;9.250;2023-08-06T08:30:27;15.40;99.90
18041;DHT22;9145;48.588;9.250;2023-08-06T08:32:54;15.40;99.90
18041;DHT22;9145;48.588;9.250;2023-08-06T08:35:21;15.40;99.90
18041;DHT22;9145;48.588;9.250;2023-08-06T08:37:48;15.50;99.90
18041;DHT22;9145;48.588;9.250;2023-08-06T08:40:15;15.30;99.90
18041;DHT22;9145;48.588;9.250;2023-08-06T08:42:42;15.20;99.90
18041;DHT22;9145;48.588;9.250;2023-08-06T08:45:13;15.20;99.90
18041;DHT22;9145;48.588;9.250;2023-08-06T08:47:41;15.30;99.90
18041;DHT22;9145;48.588;9.250;2023-08-06T08:50:09;15.30;99.90
18041;DHT22;9145;48.588;9.250;2023-08-06T08:52:38;15.20;99.90
18041;DHT22;9145;48.588;9.250;2023-08-06T08:55:07;15.20;99.90
18041;DHT22;9145;48.588;9.250;2023-08-06T08:57:34;15.30;99.90
18041;DHT22;9145;48.588;9.250;2023-08-06T09:00:01;15.30;99.90
18041;DHT22;9145;48.588;9.250;2023-08-06T09:02:31;15.30;99.90
18041;DHT22;9145;48.588;9.250;2023-08-06T09:05:00;15.20;99.90
18041;DHT22;9145;48.588;9.250;2023-08-06T09:07:31;15.20;99.90
18041;DHT22;9145;48.588;9.250;2023-08-06T09:10:01;15.10;99.90
18041;DHT22;9145;48.588;9.250;2023-08-06T09:12:29;15.20;99.90
18041;DHT22;9145;48.588;9.250;2023-08-06T09:14:56;15.30;99.90
18041;DHT22;9145;48.588;9.250;2023-08-06T09:17:23;15.40;99.90
18041;DHT22;9145;48.588;9.250;2023-08-06T09:19:51;15.40;99.90
18041;DHT22;9145;48.588;9.250;2023-08-06T09:22:18;15.20;99.90
18041;DHT22;9145;48.588;9.250;2023-08-06T09:24:45;15.20;99.90
18041;DHT22;9145;48.588;9.250;2023-08-06T09:27:12;15.40;99.90
18041;DHT22;9145;48.588;9.250;2023-08-06T09:29:43;15.40;99.90
18041;DHT22;9145;48.588;9.250;2023-08-06T09:32:10;15.40;99.90
18041;DHT22;9145;48.588;9.250;2023-08-06T09:34:39;15.40;99.90
18041;DHT22;9145;48.588;9.250;2023-08-06T09:37:08;15.30;99.90
18041;DHT22;9145;48.588;9.250;2023-08-06T09:39:37;15.40;99.90
18041;DHT22;9145;48.588;9.250;2023-08-06T09:42:04;15.50;99.90
18041;DHT22;9145;48.588;9.250;2023-08-06T09:44:32;15.70;99.90
18041;DHT22;9145;48.588;9.250;2023-08-06T09:47:00;15.90;99.90
18041;DHT22;9145;48.588;9.250;2023-08-06T09:49:39;15.90;99.90
18041;DHT22;9145;48.588;9.250;2023-08-06T09:52:11;15.90;99.90
18041;DHT22;9145;48.588;9.250;2023-08-06T09:54:38;15.60;99.90
18041;DHT22;9145;48.588;9.250;2023-08-06T09:57:05;15.60;99.90
18041;DHT22;9145;48.588;9.250;2023-08-06T09:59:33;15.40;99.90
18041;DHT22;9145;48.588;9.250;2023-08-06T10:02:01;15.40;99.90
18041;DHT22;9145;48.588;9.250;2023-08-06T10:04:29;15.40;99.90
18041;DHT22;9145;48.588;9.250;2023-08-06T10:06:56;15.40;99.90
18041;DHT22;9145;48.588;9.250;2023-08-06T10:09:26;15.30;99.90
18041;DHT22;9145;48.588;9.250;2023-08-06T10:11:52;15.00;99.90
18041;DHT22;9145;48.588;9.250;2023-08-06T10:14:24;14.80;99.90
18041;DHT22;9145;48.588;9.250;2023-08-06T10:16:52;14.50;99.90
18041;DHT22;9145;48.588;9.250;2023-08-06T10:19:19;14.40;99.90
18041;DHT22;9145;48.588;9.250;2023-08-06T10:22:07;14.50;99.90
18041;DHT22;9145;48.588;9.250;2023-08-06T10:24:47;14.50;99.90
18041;DHT22;9145;48.588;9.250;2023-08-06T10:27:20;14.50;99.90
18041;DHT22;9145;48.588;9.250;2023-08-06T10:29:47;14.50;99.90
18041;DHT22;9145;48.588;9.250;2023-08-06T10:32:14;14.50;99.90
18041;DHT22;9145;48.588;9.250;2023-08-06T10:34:57;14.60;99.90
18041;DHT22;9145;48.588;9.250;2023-08-06T10:37:26;14.70;99.90
18041;DHT22;9145;48.588;9.250;2023-08-06T10:40:03;14.70;99.90
18041;DHT22;9145;48.588;9.250;2023-08-06T10:42:30;14.80;99.90
18041;DHT22;9145;48.588;9.250;2023-08-06T10:45:13;14.90;99.90
18041;DHT22;9145;48.588;9.250;2023-08-06T10:47:41;14.90;99.90
18041;DHT22;9145;48.588;9.250;2023-08-06T10:50:10;14.90;99.90
18041;DHT22;9145;48.588;9.250;2023-08-06T10:52:37;14.90;99.90
18041;DHT22;9145;48.588;9.250;2023-08-06T10:55:06;14.90;99.90
18041;DHT22;9145;48.588;9.250;2023-08-06T10:57:34;14.90;99.90
18041;DHT22;9145;48.588;9.250;2023-08-06T11:00:01;14.70;99.90
18041;DHT22;9145;48.588;9.250;2023-08-06T11:02:28;14.70;99.90
18041;DHT22;9145;48.588;9.250;2023-08-06T11:05:05;14.70;99.90
18041;DHT22;9145;48.588;9.250;2023-08-06T11:07:32;14.80;99.90
18041;DHT22;9145;48.588;9.250;2023-08-06T11:10:02;14.70;99.90
18041;DHT22;9145;48.588;9.250;2023-08-06T11:12:30;14.70;99.90
18041;DHT22;9145;48.588;9.250;2023-08-06T11:14:57;14.80;99.90
18041;DHT22;9145;48.588;9.250;2023-08-06T11:17:24;14.80;99.90
18041;DHT22;9145;48.588;9.250;2023-08-06T11:19:51;14.90;99.90
18041;DHT22;9145;48.588;9.250;2023-08-06T11:22:19;14.90;99.90
18041;DHT22;9145;48.588;9.250;2023-08-06T11:24:46;14.90;99.90
18041;DHT22;9145;48.588;9.250;2023-08-06T11:27:14;14.90;99.90
18041;DHT22;9145;48.588;9.250;2023-08-06T11:29:42;14.80;99.90
18041;DHT22;9145;48.588;9.250;2023-08-06T11:32:10;14.90;99.90
18041;DHT22;9145;48.588;9.250;2023-08-06T11:34:37;15.00;99.90
18041;DHT22;9145;48.588;9.250;2023-08-06T11:37:04;15.20;99.90
18041;DHT22;9145;48.588;9.250;2023-08-06T11:39:32;15.10;99.90
18041;DHT22;9145;48.588;9.250;2023-08-06T11:41:59;15.10;99.90
18041;DHT22;9145;48.588;9.250;2023-08-06T11:44:30;15.10;99.90
18041;DHT22;9145;48.588;9.250;2023-08-06T11:47:00;15.10;99.90
18041;DHT22;9145;48.588;9.250;2023-08-06T11:49:42;15.20;99.90
18041;DHT22;9145;48.588;9.250;2023-08-06T11:52:13;15.30;99.90
18041;DHT22;9145;48.588;9.250;2023-08-06T11:54:40;15.30;99.90
18041;DHT22;9145;48.588;9.250;2023-08-06T11:57:08;15.30;99.90
18041;DHT22;9145;48.588;9.250;2023-08-06T11:59:35;15.30;99.90
18041;DHT22;9145;48.588;9.250;2023-08-06T12:02:05;15.30;99.90
18041;DHT22;9145;48.588;9.250;2023-08-06T12:05:01;15.50;99.90
18041;DHT22;9145;48.588;9.250;2023-08-06T12:07:30;15.60;99.90
18041;DHT22;9145;48.588;9.250;2023-08-06T12:09:57;15.70;99.90
18041;DHT22;9145;48.588;9.250;2023-08-06T12:12:24;15.80;99.90
18041;DHT22;9145;48.588;9.250;2023-08-06T12:14:51;15.80;99.90
18041;DHT22;9145;48.588;9.250;2023-08-06T12:17:19;15.90;99.90
18041;DHT22;9145;48.588;9.250;2023-08-06T12:19:46;15.90;99.90
18041;DHT22;9145;48.588;9.250;2023-08-06T12:22:14;15.80;99.90
18041;DHT22;9145;48.588;9.250;2023-08-06T12:24:41;15.60;99.90
18041;DHT22;9145;48.588;9.250;2023-08-06T12:27:08;15.40;99.90
18041;DHT22;9145;48.588;9.250;2023-08-06T12:29:35;15.20;99.90
18041;DHT22;9145;48.588;9.250;2023-08-06T12:32:02;15.10;99.90
18041;DHT22;9145;48.588;9.250;2023-08-06T12:34:31;15.10;99.90
18041;DHT22;9145;48.588;9.250;2023-08-06T12:36:58;15.20;99.90
18041;DHT22;9145;48.588;9.250;2023-08-06T12:39:24;15.30;99.90
18041;DHT22;9145;48.588;9.250;2023-08-06T12:41:54;15.30;99.90
18041;DHT22;9145;48.588;9.250;2023-08-06T12:44:22;15.30;99.90
18041;DHT22;9145;48.588;9.250;2023-08-06T12:46:49;15.30;99.90
18041;DHT22;9145;48.588;9.250;2023-08-06T12:49:16;15.50;99.90
18041;DHT22;9145;48.588;9.250;2023-08-06T12:51:44;15.60;99.90
18041;DHT22;9145;48.588;9.250;2023-08-06T12:54:11;15.60;99.90
18041;DHT22;9145;48.588;9.250;2023-08-06T12:56:38;15.60;99.90
18041;DHT22;9145;48.588;9.250;2023-08-06T12:59:05;15.50;99.90
18041;DHT22;9145;48.588;9.250;2023-08-06T13:01:31;15.60;99.90
18041;DHT22;9145;48.588;9.250;2023-08-06T13:03:59;15.80;99.90
18041;DHT22;9145;48.588;9.250;2023-08-06T13:06:26;15.80;99.90
18041;DHT22;9145;48.588;9.250;2023-08-06T13:08:54;15.80;99.90
18041;DHT22;9145;48.588;9.250;2023-08-06T13:11:21;15.70;99.90
18041;DHT22;9145;48.588;9.250;2023-08-06T13:13:48;15.80;99.90
18041;DHT22;9145;48.588;9.250;2023-08-06T13:16:15;15.90;99.90
18041;DHT22;9145;48.588;9.250;2023-08-06T13:18:42;16.00;99.90
18041;DHT22;9145;48.588;9.250;2023-08-06T13:21:09;16.10;99.90
18041;DHT22;9145;48.588;9.250;2023-08-06T13:23:36;16.10;99.90
18041;DHT22;9145;48.588;9.250;2023-08-06T13:26:04;16.00;99.90
18041;DHT22;9145;48.588;9.250;2023-08-06T13:28:31;16.10;99.90
18041;DHT22;9145;48.588;9.250;2023-08-06T13:30:57;16.20;99.90
18041;DHT22;9145;48.588;9.250;2023-08-06T13:33:24;16.20;99.90
18041;DHT22;9145;48.588;9.250;2023-08-06T13:35:52;16.20;99.90
18041;DHT22;9145;48.588;9.250;2023-08-06T13:38:19;16.40;99.90
18041;DHT22;9145;48.588;9.250;2023-08-06T13:40:45;16.30;99.90
18041;DHT22;9145;48.588;9.250;2023-08-06T13:43:14;16.40;99.90
18041;DHT22;9145;48.588;9.250;2023-08-06T13:45:42;16.50;99.90
18041;DHT22;9145;48.588;9.250;2023-08-06T13:48:09;16.40;99.90
18041;DHT22;9145;48.588;9.250;2023-08-06T13:50:36;16.30;99.90
18041;DHT22;9145;48.588;9.250;2023-08-06T13:53:03;16.40;99.90
18041;DHT22;9145;48.588;9.250;2023-08-06T13:55:30;16.40;99.90
18041;DHT22;9145;48.588;9.250;2023-08-06T13:57:57;16.50;99.90
18041;DHT22;9145;48.588;9.250;2023-08-06T14:00:25;16.60;99.90
18041;DHT22;9145;48.588;9.250;2023-08-06T14:02:51;16.60;99.90
18041;DHT22;9145;48.588;9.250;2023-08-06T14:05:18;16.60;99.90
18041;DHT22;9145;48.588;9.250;2023-08-06T14:07:45;16.70;99.90
18041;DHT22;9145;48.588;9.250;2023-08-06T14:10:12;16.60;99.90
18041;DHT22;9145;48.588;9.250;2023-08-06T14:12:39;16.70;99.90
18041;DHT22;9145;48.588;9.250;2023-08-06T14:15:06;16.80;99.90
18041;DHT22;9145;48.588;9.250;2023-08-06T14:17:35;16.90;99.90
18041;DHT22;9145;48.588;9.250;2023-08-06T14:20:03;16.90;99.90
18041;DHT22;9145;48.588;9.250;2023-08-06T14:22:30;17.20;99.90
18041;DHT22;9145;48.588;9.250;2023-08-06T14:24:57;17.50;99.90
18041;DHT22;9145;48.588;9.250;2023-08-06T14:27:24;17.40;99.90
18041;DHT22;9145;48.588;9.250;2023-08-06T14:29:51;17.20;99.90
18041;DHT22;9145;48.588;9.250;2023-08-06T14:32:18;17.10;99.90
18041;DHT22;9145;48.588;9.250;2023-08-06T14:34:46;16.80;99.90
18041;DHT22;9145;48.588;9.250;2023-08-06T14:37:13;16.80;99.90
18041;DHT22;9145;48.588;9.250;2023-08-06T14:39:40;16.70;99.90
18041;DHT22;9145;48.588;9.250;2023-08-06T14:42:07;16.60;99.90
18041;DHT22;9145;48.588;9.250;2023-08-06T14:44:34;16.70;99.90
18041;DHT22;9145;48.588;9.250;2023-08-06T14:47:00;16.60;99.90
18041;DHT22;9145;48.588;9.250;2023-08-06T14:49:27;15.90;99.90
18041;DHT22;9145;48.588;9.250;2023-08-06T14:51:55;15.40;99.90
18041;DHT22;9145;48.588;9.250;2023-08-06T14:54:24;15.20;99.90
18041;DHT22;9145;48.588;9.250;2023-08-06T14:56:51;15.00;99.90
18041;DHT22;9145;48.588;9.250;2023-08-06T14:59:18;15.00;99.90
18041;DHT22;9145;48.588;9.250;2023-08-06T15:01:45;15.50;99.90
18041;DHT22;9145;48.588;9.250;2023-08-06T15:04:12;15.80;99.90
18041;DHT22;9145;48.588;9.250;2023-08-06T15:06:39;16.00;99.90
18041;DHT22;9145;48.588;9.250;2023-08-06T15:09:07;16.00;99.90
18041;DHT22;9145;48.588;9.250;2023-08-06T15:11:34;16.00;99.90
18041;DHT22;9145;48.588;9.250;2023-08-06T15:14:00;16.00;99.90
18041;DHT22;9145;48.588;9.250;2023-08-06T15:16:30;16.00;99.90
18041;DHT22;9145;48.588;9.250;2023-08-06T15:18:59;15.90;99.90
18041;DHT22;9145;48.588;9.250;2023-08-06T15:21:26;15.80;99.90
18041;DHT22;9145;48.588;9.250;2023-08-06T15:23:53;15.70;99.90
18041;DHT22;9145;48.588;9.250;2023-08-06T15:26:21;15.60;99.90
18041;DHT22;9145;48.588;9.250;2023-08-06T15:28:48;15.50;99.90
18041;DHT22;9145;48.588;9.250;2023-08-06T15:31:14;15.30;99.90
18041;DHT22;9145;48.588;9.250;2023-08-06T15:33:41;15.20;99.90
18041;DHT22;9145;48.588;9.250;2023-08-06T15:36:08;15.20;99.90
18041;DHT22;9145;48.588;9.250;2023-08-06T15:38:35;15.50;99.90
18041;DHT22;9145;48.588;9.250;2023-08-06T15:41:01;16.00;99.90
18041;DHT22;9145;48.588;9.250;2023-08-06T15:43:30;16.60;99.90
18041;DHT22;9145;48.588;9.250;2023-08-06T15:45:56;17.40;99.90
18041;DHT22;9145;48.588;9.250;2023-08-06T15:48:23;18.00;99.90